Flight Track Log - Related Links

Times and Time Zones

All times are in EDT time to prevent confusion due to time zone crossing. See the SKW5550 flight status page for this flight to view local times or setup timezone preferences in your user account.

Time Position Orientation Groundspeed Altitude Reporting Facility
EDT Latitude Longitude Course Direction KTS MPH feet Rate Location/Type
Mon 07:53:06 AM 44.5133 -108.9072 157° South 214 246 8,200  Level Salt Lake Center
Mon 07:54:00 AM 44.3901 -108.8322 154° Southeast  Level FlightAware Approximate
Mon 07:54:07 AM 44.4497 -108.8667 156° South 237 273 9,600  Level Salt Lake Center
Mon 07:55:00 AM 44.2836 -108.7613 154° Southeast  Level FlightAware Approximate
Mon 07:55:07 AM 44.3725 -108.8242 159° South 263 303 11,000  Level Salt Lake Center
Mon 07:56:00 AM 44.1749 -108.6975 158° South  Level FlightAware Approximate
Mon 07:56:07 AM 44.2908 -108.7750 157° South 291 335 12,600  Level Salt Lake Center
Mon 07:57:00 AM 44.0652 -108.6370 159° South  Level FlightAware Approximate
Mon 07:57:08 AM 44.2144 -108.6969 144° Southeast 321 369 14,000  Level Salt Lake Center
Mon 07:58:00 AM 43.9555 -108.5768 157° South  Level FlightAware Approximate
Mon 07:58:08 AM 44.1367 -108.6178 144° Southeast 337 388 15,500  Level Salt Lake Center
Mon 07:59:08 AM 44.0544 -108.5378 145° Southeast 349 402 17,000 1,500 Climbing Salt Lake Center
Mon 08:00:08 AM 43.9725 -108.4556 144° Southeast 359 413 18,500 1,388 Climbing Salt Lake Center
Mon 08:01:09 AM 43.8922 -108.3753 144° Southeast 358 412 19,800 1,190 Climbing Salt Lake Center
Mon 08:02:09 AM 43.8103 -108.2961 145° Southeast 359 413 20,900 1,050 Climbing Salt Lake Center
Mon 08:03:09 AM 43.7250 -108.2125 145° Southeast 373 429 21,900 900 Climbing Salt Lake Center
Mon 08:04:09 AM 43.6386 -108.1261 144° Southeast 383 441 22,700 744 Climbing Salt Lake Center
Mon 08:05:10 AM 43.5483 -108.0400 145° Southeast 394 453 23,400 694 Climbing Salt Lake Center
Mon 08:06:10 AM 43.4558 -107.9481 144° Southeast 407 468 24,100 700 Climbing Salt Lake Center
Mon 08:07:10 AM 43.3625 -107.8606 146° Southeast 407 468 24,800 744 Climbing Salt Lake Center
Mon 08:08:11 AM 43.2683 -107.7669 144° Southeast 417 480 25,600 744 Climbing Salt Lake Center
Mon 08:09:11 AM 43.1736 -107.6769 145° Southeast 417 480 26,300 700 Climbing Salt Lake Center
Mon 08:10:11 AM 43.0786 -107.5861 145° Southeast 418 481 27,000 694 Climbing Salt Lake Center
Mon 08:11:12 AM 42.9831 -107.4947 145° Southeast 420 483 27,700 694 Climbing Salt Lake Center
Mon 08:12:12 AM 42.8847 -107.4000 145° Southeast 418 481 28,400 744 Climbing Salt Lake Center
Mon 08:13:13 AM 42.7806 -107.3014 145° Southeast 411 473 29,200 645 Climbing Salt Lake Center
Mon 08:14:13 AM 42.6878 -107.2169 146° Southeast 415 478 29,700 500 Climbing Salt Lake Center
Mon 08:15:13 AM 42.5969 -107.1306 145° Southeast 415 478 30,200 496 Climbing Salt Lake Center
Mon 08:16:14 AM 42.4892 -107.0311 146° Southeast 418 481 30,700 397 Climbing Salt Lake Center
Mon 08:17:14 AM 42.4039 -106.9525 146° Southeast 419 482 31,000 149 Climbing Salt Lake Center
Mon 08:18:15 AM 42.3053 -106.8600 145° Southeast 420 483 31,000  Level Salt Lake Center
Mon 08:19:15 AM 42.2092 -106.7725 146° Southeast 432 497 31,000  Level Salt Lake Center
Mon 08:20:16 AM 42.0969 -106.6694 146° Southeast 435 501 31,000  Level Salt Lake Center
Mon 08:21:16 AM 41.9919 -106.5744 146° Southeast 438 504 31,000  Level Salt Lake Center
Mon 08:22:17 AM 41.8950 -106.4847 145° Southeast 442 509 31,000  Level Salt Lake Center
Mon 08:23:17 AM 41.7986 -106.3967 146° Southeast 439 505 31,000  Level Salt Lake Center
Mon 08:24:17 AM 41.7006 -106.3086 146° Southeast 443 510 31,000  Level Salt Lake Center
Mon 08:25:24 AM 41.5864 -106.2044 146° Southeast 445 512 31,000  Level Denver Center
Mon 08:26:25 AM 41.4719 -106.1028 146° Southeast 443 510 31,000  Level Denver Center
Mon 08:27:26 AM 41.3736 -106.0147 146° Southeast 446 513 31,000  Level Denver Center
Mon 08:28:27 AM 41.2581 -105.9125 146° Southeast 447 514 31,000  Level Denver Center
Mon 08:29:27 AM 41.1586 -105.8228 146° Southeast 451 519 31,000 -893 Level Denver Center
Mon 08:30:28 AM 41.0581 -105.7358 147° Southeast 454 522 29,200 -1,820 Descending Denver Center
Mon 08:31:29 AM 40.9756 -105.6619 146° Southeast 469 540 27,300 -2,410 Descending Denver Center
Mon 08:32:30 AM 40.8433 -105.5456 146° Southeast 476 548 24,300 -2,902 Descending Denver Center
Mon 08:33:31 AM 40.7128 -105.4303 146° Southeast 472 543 21,400 -2,132 Descending Denver Center
Mon 08:34:31 AM 40.6111 -105.3408 146° Southeast 446 513 20,000 -1,190 Descending Denver Center
Mon 08:35:32 AM 40.5197 -105.2619 147° Southeast 400 460 19,000 -1,230 Descending Denver Center
Mon 08:36:33 AM 40.4656 -105.1469 122° Southeast 414 476 17,500 -1,820 Descending Denver Center
Mon 08:37:34 AM 40.3850 -105.0422 135° Southeast 409 471 15,300 -2,164 Descending Denver Center
Mon 08:38:35 AM 40.3067 -104.9186 130° Southeast 407 468 13,100 -1,672 Descending Denver Center
Mon 08:39:36 AM 40.2342 -104.8339 138° Southeast 345 397 11,900 -1,289 Descending Denver Center
Mon 08:40:36 AM 40.1550 -104.7906 157° South 304 350 10,500 -1,488 Descending Denver Center
Mon 08:41:37 AM 40.0825 -104.7506 157° South 284 327 8,900 -1,328 Descending Denver Center
Mon 08:42:38 AM 40.0172 -104.7150 157° South 252 290 7,800 -1,082 Descending Denver Center
Mon 08:43:39 AM 39.9628 -104.6956 165° South 200 230 6,700 -1,033 Descending Denver Center
Mon 08:44:40 AM 39.9111 -104.6953 180° South 172 198 5,700 -689 Descending Denver Center
Mon 08:45:41 AM 39.8781 -104.6961 181° South 141 162 5,300 -393 Descending Denver Center

Login

Don't have an account? Register now (free) for customized features, flight alerts, and more!